createdAt,value
2023-05-11T00:01:37.029Z,5.10
2023-05-11T00:04:04.219Z,6.20
2023-05-11T00:06:32.366Z,6.60
2023-05-11T00:08:59.426Z,5.20
2023-05-11T00:11:28.059Z,8.00
2023-05-11T00:13:55.140Z,5.30
2023-05-11T00:16:23.212Z,5.40
2023-05-11T00:18:50.669Z,4.70
2023-05-11T00:21:17.798Z,5.80
2023-05-11T00:23:44.945Z,5.90
2023-05-11T00:26:12.124Z,5.60
2023-05-11T00:28:43.362Z,6.10
2023-05-11T00:31:10.471Z,5.10
2023-05-11T00:33:37.682Z,5.30
2023-05-11T00:36:04.987Z,4.30
2023-05-11T00:38:32.455Z,5.70
2023-05-11T00:40:59.589Z,5.50
2023-05-11T00:43:26.828Z,4.80
2023-05-11T00:45:53.964Z,5.40
2023-05-11T00:48:21.917Z,5.00
2023-05-11T00:50:49.723Z,4.90
2023-05-11T00:53:16.936Z,7.10
2023-05-11T00:55:44.703Z,6.50
2023-05-11T00:58:12.068Z,7.30
2023-05-11T01:00:40.552Z,6.60
2023-05-11T01:03:08.127Z,7.20
2023-05-11T01:05:48.732Z,6.50
2023-05-11T01:08:22.473Z,6.30
2023-05-11T01:11:08.519Z,6.40
2023-05-11T01:13:42.998Z,5.10
2023-05-11T01:16:19.252Z,5.20
2023-05-11T01:18:53.554Z,4.60
2023-05-11T01:21:20.865Z,5.80
2023-05-11T01:24:03.211Z,4.30
2023-05-11T01:26:54.693Z,5.30
2023-05-11T01:29:53.853Z,4.50
2023-05-11T01:32:24.617Z,4.50
2023-05-11T01:35:01.511Z,4.30
2023-05-11T01:37:32.894Z,3.40
2023-05-11T01:40:05.809Z,3.80
2023-05-11T01:42:38.886Z,5.00
2023-05-11T01:45:11.190Z,4.40
2023-05-11T01:47:40.839Z,4.50
2023-05-11T01:50:09.073Z,3.90
2023-05-11T01:52:41.170Z,3.60
2023-05-11T01:55:10.560Z,4.00
2023-05-11T01:57:38.804Z,4.30
2023-05-11T02:00:09.046Z,4.30
2023-05-11T02:02:46.208Z,4.30
2023-05-11T02:05:19.789Z,4.50
2023-05-11T02:07:50.817Z,4.10
2023-05-11T02:10:19.628Z,3.30
2023-05-11T02:12:53.036Z,3.70
2023-05-11T02:15:22.537Z,3.60
2023-05-11T02:17:51.313Z,3.70
2023-05-11T02:20:20.876Z,3.60
2023-05-11T02:22:49.612Z,3.70
2023-05-11T02:25:17.442Z,3.50
2023-05-11T02:27:45.123Z,3.70
2023-05-11T02:30:14.133Z,4.10
2023-05-11T02:32:48.405Z,3.70
2023-05-11T02:35:43.303Z,3.70
2023-05-11T02:38:12.828Z,3.80
2023-05-11T02:40:46.138Z,4.40
2023-05-11T02:43:21.073Z,3.70
2023-05-11T02:45:56.980Z,3.10
2023-05-11T02:48:29.485Z,4.30
2023-05-11T02:51:00.636Z,3.60
2023-05-11T02:53:33.586Z,4.40
2023-05-11T02:56:01.142Z,4.00
2023-05-11T02:58:30.527Z,4.10
2023-05-11T03:01:08.073Z,4.30
2023-05-11T03:03:35.592Z,4.10
2023-05-11T03:06:02.798Z,4.70
2023-05-11T03:08:30.416Z,4.40
2023-05-11T03:10:59.142Z,5.10
2023-05-11T03:13:27.698Z,4.50
2023-05-11T03:15:56.094Z,5.40
2023-05-11T03:18:24.264Z,4.80
2023-05-11T03:20:52.105Z,5.20
2023-05-11T03:23:20.497Z,4.40
2023-05-11T03:25:48.398Z,4.40
2023-05-11T03:28:16.637Z,4.50
2023-05-11T03:30:52.290Z,4.20
2023-05-11T03:33:21.186Z,4.00
2023-05-11T03:35:51.397Z,4.40
2023-05-11T03:38:23.693Z,4.10
2023-05-11T03:40:53.739Z,4.50
2023-05-11T03:43:22.253Z,4.40
2023-05-11T03:45:53.308Z,3.90
2023-05-11T03:48:22.786Z,4.20
2023-05-11T03:50:50.207Z,4.60
2023-05-11T03:53:17.747Z,4.40
2023-05-11T03:55:44.778Z,3.50
2023-05-11T03:58:11.934Z,3.60
2023-05-11T04:00:40.491Z,5.30
2023-05-11T04:03:09.625Z,4.00
2023-05-11T04:05:38.456Z,4.70
2023-05-11T04:08:10.053Z,4.00
2023-05-11T04:10:38.389Z,3.90
2023-05-11T04:13:05.860Z,4.10
2023-05-11T04:15:33.028Z,4.10
2023-05-11T04:18:00.265Z,3.60
2023-05-11T04:20:27.548Z,4.00
2023-05-11T04:22:54.913Z,4.20
2023-05-11T04:25:22.023Z,6.70
2023-05-11T04:27:49.095Z,4.50
2023-05-11T04:30:16.362Z,4.20
2023-05-11T04:32:43.556Z,5.20
2023-05-11T04:35:10.770Z,4.50
2023-05-11T04:37:39.480Z,3.80
2023-05-11T04:40:09.003Z,3.90
2023-05-11T04:42:43.023Z,3.40
2023-05-11T04:45:14.805Z,3.70
2023-05-11T04:47:43.338Z,3.90
2023-05-11T04:50:11.521Z,4.50
2023-05-11T04:52:38.858Z,4.30
2023-05-11T04:55:06.397Z,4.50
2023-05-11T04:57:34.950Z,3.80
2023-05-11T05:00:04.130Z,3.30
2023-05-11T05:02:32.756Z,3.40
2023-05-11T05:05:01.003Z,2.50
2023-05-11T05:07:28.192Z,2.90
2023-05-11T05:09:56.314Z,4.10
2023-05-11T05:12:24.082Z,3.40
2023-05-11T05:14:51.158Z,3.60
2023-05-11T05:17:18.202Z,2.70
2023-05-11T05:19:45.509Z,3.30
2023-05-11T05:22:12.595Z,3.30
2023-05-11T05:24:39.658Z,3.60
2023-05-11T05:27:06.778Z,3.70
2023-05-11T05:29:33.820Z,3.00
2023-05-11T05:32:00.873Z,2.80
2023-05-11T05:34:28.808Z,3.20
2023-05-11T05:36:55.983Z,4.80
2023-05-11T05:39:23.777Z,2.80
2023-05-11T05:41:51.780Z,3.20
2023-05-11T05:44:18.851Z,3.80
2023-05-11T05:46:46.100Z,3.00
2023-05-11T05:49:13.639Z,3.80
2023-05-11T05:51:42.243Z,4.20
2023-05-11T05:54:09.427Z,3.60
2023-05-11T05:56:36.479Z,3.30
2023-05-11T05:59:05.462Z,3.10
2023-05-11T06:01:33.255Z,3.20
2023-05-11T06:04:00.811Z,3.10
2023-05-11T06:06:28.114Z,2.70
2023-05-11T06:08:55.143Z,2.60
2023-05-11T06:11:22.799Z,2.90
2023-05-11T06:13:51.724Z,3.10
2023-05-11T06:16:18.839Z,2.70
2023-05-11T06:18:46.654Z,3.00
2023-05-11T06:21:15.630Z,3.00
2023-05-11T06:23:42.798Z,2.80
2023-05-11T06:26:10.012Z,2.90
2023-05-11T06:28:37.416Z,3.20
2023-05-11T06:31:07.748Z,2.90
2023-05-11T06:33:36.598Z,2.70
2023-05-11T06:36:06.875Z,3.00
2023-05-11T06:38:35.060Z,1.90
2023-05-11T06:41:02.277Z,2.70
2023-05-11T06:43:29.650Z,3.20
2023-05-11T06:46:01.292Z,3.10
2023-05-11T06:48:30.163Z,3.10
2023-05-11T06:50:58.617Z,3.90
2023-05-11T06:53:25.938Z,3.10
2023-05-11T06:55:54.921Z,2.70
2023-05-11T06:58:22.010Z,2.50
2023-05-11T07:00:49.306Z,3.30
2023-05-11T07:03:16.481Z,2.50
2023-05-11T07:05:44.012Z,3.60
2023-05-11T07:08:11.115Z,2.40
2023-05-11T07:10:38.324Z,2.90
2023-05-11T07:13:05.962Z,2.00
2023-05-11T07:15:33.097Z,2.80
2023-05-11T07:18:01.653Z,2.00
2023-05-11T07:20:28.894Z,2.10
2023-05-11T07:22:59.557Z,2.20
2023-05-11T07:25:26.698Z,1.80
2023-05-11T07:27:53.891Z,1.70
2023-05-11T07:30:21.356Z,1.80
2023-05-11T07:32:48.990Z,2.00
2023-05-11T07:35:16.093Z,1.30
2023-05-11T07:37:43.258Z,1.60
2023-05-11T07:40:10.609Z,2.50
2023-05-11T07:42:37.832Z,1.80
2023-05-11T07:45:05.259Z,2.00
2023-05-11T07:47:33.657Z,1.50
2023-05-11T07:50:02.533Z,1.50
2023-05-11T07:52:29.621Z,2.80
2023-05-11T07:54:56.984Z,2.00
2023-05-11T07:57:24.197Z,1.70
2023-05-11T07:59:51.432Z,1.90
2023-05-11T08:02:19.240Z,1.60
2023-05-11T08:04:46.729Z,2.90
2023-05-11T08:07:14.190Z,2.00
2023-05-11T08:09:41.281Z,2.80
2023-05-11T08:12:09.755Z,3.10
2023-05-11T08:14:37.968Z,3.10
2023-05-11T08:17:05.935Z,1.90
2023-05-11T08:19:33.104Z,1.80
2023-05-11T08:22:03.406Z,2.40
2023-05-11T08:24:30.563Z,2.40
2023-05-11T08:26:57.676Z,1.90
2023-05-11T08:29:27.628Z,1.90
2023-05-11T08:31:54.728Z,1.80
2023-05-11T08:34:22.624Z,1.70
2023-05-11T08:36:49.769Z,2.30
2023-05-11T08:39:28.557Z,2.30
2023-05-11T08:42:07.228Z,1.70
2023-05-11T08:44:37.936Z,1.70
2023-05-11T08:47:22.124Z,1.90
2023-05-11T08:49:52.626Z,1.60
2023-05-11T08:52:20.192Z,2.00
2023-05-11T08:54:48.288Z,1.40
2023-05-11T08:57:15.546Z,2.00
2023-05-11T08:59:48.440Z,2.50
2023-05-11T09:02:20.226Z,2.20
2023-05-11T09:04:48.928Z,1.90
2023-05-11T09:07:18.352Z,2.00
2023-05-11T09:09:46.944Z,2.40
2023-05-11T09:12:14.419Z,2.30
2023-05-11T09:14:42.156Z,2.10
2023-05-11T09:17:09.389Z,2.50
2023-05-11T09:19:36.610Z,1.80
2023-05-11T09:22:06.660Z,1.90
2023-05-11T09:24:33.945Z,2.10
2023-05-11T09:27:09.409Z,2.30
2023-05-11T09:29:36.554Z,2.20
2023-05-11T09:32:04.985Z,2.00
2023-05-11T09:34:32.047Z,2.60
2023-05-11T09:36:59.315Z,2.80
2023-05-11T09:39:38.296Z,2.00
2023-05-11T09:42:16.868Z,2.40
2023-05-11T09:44:45.725Z,2.00
2023-05-11T09:47:17.813Z,2.80
2023-05-11T09:49:47.225Z,2.70
2023-05-11T09:52:18.423Z,2.40
2023-05-11T09:54:51.787Z,2.10
2023-05-11T09:57:30.815Z,2.20
2023-05-11T10:00:00.132Z,3.70
2023-05-11T10:02:31.295Z,3.40
2023-05-11T10:05:00.993Z,2.30
2023-05-11T10:07:32.325Z,2.10
2023-05-11T10:10:11.829Z,2.40
2023-05-11T10:12:40.625Z,2.10
2023-05-11T10:15:09.943Z,2.00
2023-05-11T10:17:38.216Z,2.30
2023-05-11T10:20:06.856Z,1.60
2023-05-11T10:22:34.394Z,2.10
2023-05-11T10:25:02.979Z,1.80
2023-05-11T10:27:31.890Z,1.80
2023-05-11T10:29:59.564Z,1.70
2023-05-11T10:32:28.806Z,23.20
2023-05-11T10:34:56.931Z,7.60
2023-05-11T10:37:24.588Z,3.80
2023-05-11T10:39:52.509Z,2.60
2023-05-11T10:42:22.608Z,1.60
2023-05-11T10:45:08.802Z,2.00
2023-05-11T10:47:51.964Z,1.70
2023-05-11T10:50:34.475Z,1.90
2023-05-11T10:53:16.878Z,1.60
2023-05-11T10:56:12.556Z,3.00
2023-05-11T10:58:45.766Z,2.20
2023-05-11T11:01:26.181Z,3.20
2023-05-11T11:04:07.919Z,1.90
2023-05-11T11:06:37.927Z,2.60
2023-05-11T11:09:08.276Z,2.20
2023-05-11T11:11:39.351Z,2.30
2023-05-11T11:14:09.683Z,2.00
2023-05-11T11:16:39.205Z,5.00
2023-05-11T11:19:31.564Z,1.80
2023-05-11T11:22:00.314Z,1.90
2023-05-11T11:24:39.589Z,1.70
2023-05-11T11:27:08.637Z,1.70
2023-05-11T11:29:36.887Z,2.70
2023-05-11T11:32:25.409Z,3.10
2023-05-11T11:34:52.672Z,1.80
2023-05-11T11:37:22.338Z,2.00
2023-05-11T11:39:51.224Z,2.40
2023-05-11T11:42:30.597Z,1.80
2023-05-11T11:45:27.428Z,1.70
2023-05-11T11:48:13.529Z,1.60
2023-05-11T11:50:47.134Z,2.30
2023-05-11T11:53:37.648Z,1.60
2023-05-11T11:56:07.612Z,2.00
2023-05-11T11:58:44.339Z,2.10
2023-05-11T12:01:15.510Z,1.60
2023-05-11T12:03:46.614Z,2.00
2023-05-11T12:06:14.628Z,1.90
2023-05-11T12:08:43.234Z,1.80
2023-05-11T12:11:10.318Z,2.50
2023-05-11T12:13:38.768Z,1.90
2023-05-11T12:16:09.884Z,2.10
2023-05-11T12:18:37.302Z,2.00
2023-05-11T12:21:04.942Z,1.70
2023-05-11T12:23:32.544Z,1.90
2023-05-11T12:26:07.199Z,2.20
2023-05-11T12:28:34.327Z,1.80
2023-05-11T12:31:02.157Z,1.90
2023-05-11T12:33:29.300Z,2.00
2023-05-11T12:35:57.401Z,2.00
2023-05-11T12:38:24.530Z,1.70
2023-05-11T12:40:53.363Z,1.60
2023-05-11T12:43:22.881Z,2.30
2023-05-11T12:45:50.131Z,2.40
2023-05-11T12:48:17.457Z,2.20
2023-05-11T12:50:46.632Z,2.10
2023-05-11T12:53:20.952Z,2.40
2023-05-11T12:55:59.099Z,2.40
2023-05-11T12:58:26.390Z,2.00
2023-05-11T13:00:55.823Z,2.00
2023-05-11T13:03:28.879Z,1.80
2023-05-11T13:06:05.387Z,2.20
2023-05-11T13:08:32.662Z,1.30
2023-05-11T13:11:25.963Z,1.60
2023-05-11T13:13:54.666Z,2.00
2023-05-11T13:16:30.136Z,2.00
2023-05-11T13:19:02.713Z,1.60
2023-05-11T13:21:31.604Z,1.50
2023-05-11T13:23:59.648Z,1.80
2023-05-11T13:26:29.663Z,1.90
2023-05-11T13:29:09.415Z,1.90
2023-05-11T13:31:50.296Z,1.80
2023-05-11T13:34:18.538Z,2.20
2023-05-11T13:36:46.832Z,1.70
2023-05-11T13:39:14.003Z,1.60
2023-05-11T13:41:43.311Z,2.30
2023-05-11T13:44:10.447Z,1.90
2023-05-11T13:46:37.587Z,1.50
2023-05-11T13:49:05.349Z,2.10
2023-05-11T13:51:32.895Z,1.60
2023-05-11T13:54:01.107Z,1.90
2023-05-11T13:56:28.384Z,1.40
2023-05-11T13:58:56.715Z,2.10
2023-05-11T14:01:25.898Z,2.30
2023-05-11T14:03:54.040Z,2.20
2023-05-11T14:06:22.691Z,2.00
2023-05-11T14:08:53.736Z,2.00
2023-05-11T14:11:21.790Z,3.10
2023-05-11T14:13:49.093Z,2.50
2023-05-11T14:16:16.162Z,4.10
2023-05-11T14:18:43.505Z,3.90
2023-05-11T14:21:10.631Z,7.10
2023-05-11T14:23:41.664Z,4.90
2023-05-11T14:26:12.695Z,2.00
2023-05-11T14:28:40.346Z,1.80
2023-05-11T14:31:07.913Z,1.40
2023-05-11T14:33:35.294Z,1.70
2023-05-11T14:36:03.280Z,1.50
2023-05-11T14:38:30.459Z,1.80
2023-05-11T14:41:00.354Z,1.90
2023-05-11T14:43:27.665Z,3.50
2023-05-11T14:45:54.919Z,4.10
2023-05-11T14:48:22.972Z,3.00
2023-05-11T14:50:50.141Z,2.90
2023-05-11T14:53:17.313Z,1.70
2023-05-11T14:55:44.446Z,1.50
2023-05-11T14:58:11.703Z,2.70
2023-05-11T15:00:41.667Z,2.00
2023-05-11T15:03:10.993Z,11.60
2023-05-11T15:05:38.867Z,3.00
2023-05-11T15:08:12.754Z,2.00
2023-05-11T15:10:45.843Z,2.00
2023-05-11T15:13:14.697Z,1.80
2023-05-11T15:15:42.014Z,2.10
2023-05-11T15:18:09.525Z,4.00
2023-05-11T15:20:38.802Z,3.00
2023-05-11T15:23:06.588Z,7.10
2023-05-11T15:25:33.621Z,1.90
2023-05-11T15:28:01.072Z,1.90
2023-05-11T15:30:30.826Z,1.70
2023-05-11T15:32:59.537Z,2.00
2023-05-11T15:35:26.668Z,1.80
2023-05-11T15:37:54.106Z,1.50
2023-05-11T15:40:21.176Z,1.20
2023-05-11T15:42:48.571Z,1.60
2023-05-11T15:45:15.906Z,1.80
2023-05-11T15:47:43.305Z,2.00
2023-05-11T15:50:10.930Z,1.60
2023-05-11T15:52:38.034Z,1.50
2023-05-11T15:55:05.630Z,1.80
2023-05-11T15:57:32.712Z,2.10
2023-05-11T16:00:00.137Z,2.00
2023-05-11T16:02:27.428Z,8.80
2023-05-11T16:04:55.012Z,4.40
2023-05-11T16:07:22.363Z,3.10
2023-05-11T16:09:49.379Z,1.90
2023-05-11T16:12:16.541Z,4.40
2023-05-11T16:14:43.611Z,3.40
2023-05-11T16:17:10.766Z,2.80
2023-05-11T16:19:38.508Z,2.50
2023-05-11T16:22:05.539Z,3.00
2023-05-11T16:24:34.464Z,3.40
2023-05-11T16:27:02.052Z,3.80
2023-05-11T16:29:29.347Z,4.50
2023-05-11T16:31:57.559Z,5.30
2023-05-11T16:34:24.860Z,4.80
2023-05-11T16:36:52.101Z,6.30
2023-05-11T16:39:19.112Z,6.40
2023-05-11T16:41:46.108Z,6.60
2023-05-11T16:44:13.191Z,6.40
2023-05-11T16:46:40.369Z,6.10
2023-05-11T16:49:07.524Z,6.70
2023-05-11T16:51:34.927Z,7.00
2023-05-11T16:54:02.017Z,5.80
2023-05-11T16:56:29.141Z,5.80
2023-05-11T16:58:56.565Z,5.90
2023-05-11T17:01:23.763Z,6.20
2023-05-11T17:03:51.356Z,6.70
2023-05-11T17:06:21.007Z,8.90
2023-05-11T17:08:48.232Z,8.50
2023-05-11T17:11:15.470Z,8.60
2023-05-11T17:13:42.616Z,10.80
2023-05-11T17:16:09.755Z,8.20
2023-05-11T17:18:37.011Z,7.80
2023-05-11T17:21:04.294Z,8.10
2023-05-11T17:23:31.770Z,8.20
2023-05-11T17:25:59.459Z,7.20
2023-05-11T17:28:27.269Z,6.40
2023-05-11T17:30:54.611Z,4.80
2023-05-11T17:33:23.879Z,4.20
2023-05-11T17:35:52.314Z,4.70
2023-05-11T17:38:19.676Z,5.50
2023-05-11T17:40:48.471Z,4.40
2023-05-11T17:43:15.639Z,4.60
2023-05-11T17:45:43.138Z,4.40
2023-05-11T17:48:13.296Z,5.20
2023-05-11T17:50:40.410Z,5.90
2023-05-11T17:53:07.578Z,5.40
2023-05-11T17:55:39.359Z,6.80
2023-05-11T17:58:06.599Z,7.50
2023-05-11T18:00:34.387Z,8.30
2023-05-11T18:03:01.910Z,8.10
2023-05-11T18:05:40.399Z,6.80
2023-05-11T18:08:15.097Z,9.90
2023-05-11T18:10:42.318Z,11.20
2023-05-11T18:13:09.971Z,10.10
2023-05-11T18:15:37.937Z,11.10
2023-05-11T18:18:05.410Z,11.20
2023-05-11T18:20:32.520Z,11.60
2023-05-11T18:22:59.913Z,13.50
2023-05-11T18:25:28.473Z,14.50
2023-05-11T18:27:55.479Z,17.90
2023-05-11T18:30:22.857Z,17.10
2023-05-11T18:32:50.215Z,16.60
2023-05-11T18:35:18.585Z,19.30
2023-05-11T18:37:46.172Z,17.30
2023-05-11T18:40:13.479Z,16.50
2023-05-11T18:42:41.307Z,11.70
2023-05-11T18:45:09.440Z,9.80
2023-05-11T18:47:37.018Z,8.40
2023-05-11T18:50:04.475Z,9.10
2023-05-11T18:52:31.766Z,8.80
2023-05-11T18:54:58.973Z,8.20
2023-05-11T18:57:26.060Z,8.20
2023-05-11T18:59:53.305Z,8.80
2023-05-11T19:02:20.522Z,11.10
2023-05-11T19:04:47.785Z,9.60
2023-05-11T19:07:16.439Z,8.40
2023-05-11T19:09:43.705Z,7.80
2023-05-11T19:12:10.754Z,8.40
2023-05-11T19:14:37.798Z,7.80
2023-05-11T19:17:05.436Z,6.80
2023-05-11T19:19:32.563Z,7.40
2023-05-11T19:22:00.191Z,6.60
2023-05-11T19:24:27.776Z,5.80
2023-05-11T19:27:05.893Z,6.70
2023-05-11T19:29:35.105Z,6.20
2023-05-11T19:32:03.422Z,5.10
2023-05-11T19:34:30.900Z,5.20
2023-05-11T19:36:57.939Z,6.20
2023-05-11T19:39:25.103Z,5.60
2023-05-11T19:41:52.179Z,5.70
2023-05-11T19:44:19.450Z,6.10
2023-05-11T19:46:47.290Z,5.70
2023-05-11T19:49:15.601Z,5.00
2023-05-11T19:51:43.351Z,5.20
2023-05-11T19:54:11.639Z,4.90
2023-05-11T19:56:39.557Z,5.60
2023-05-11T19:59:06.755Z,5.20
2023-05-11T20:01:33.844Z,6.70
2023-05-11T20:04:01.706Z,5.30
2023-05-11T20:06:29.129Z,5.80
2023-05-11T20:08:56.727Z,6.20
2023-05-11T20:11:25.533Z,5.70
2023-05-11T20:13:53.821Z,7.90
2023-05-11T20:16:23.433Z,8.40
2023-05-11T20:18:51.691Z,7.50
2023-05-11T20:21:18.973Z,7.50
2023-05-11T20:23:45.990Z,7.10
2023-05-11T20:26:13.036Z,7.30
2023-05-11T20:28:40.222Z,8.70
2023-05-11T20:31:09.695Z,8.00
2023-05-11T20:36:07.103Z,5.70
2023-05-11T20:38:34.233Z,5.40
2023-05-11T20:41:01.289Z,5.50
2023-05-11T20:43:28.510Z,5.80
2023-05-11T20:46:01.710Z,5.50
2023-05-11T20:48:39.065Z,6.20
2023-05-11T20:51:07.918Z,6.40
2023-05-11T20:53:35.106Z,6.70
2023-05-11T20:56:03.304Z,6.80
2023-05-11T20:58:31.818Z,6.80
2023-05-11T21:00:59.192Z,6.80
2023-05-11T21:03:27.859Z,5.70
2023-05-11T21:05:56.472Z,6.40
2023-05-11T21:08:23.560Z,6.50
2023-05-11T21:10:50.712Z,5.50
2023-05-11T21:13:17.824Z,5.80
2023-05-11T21:15:44.922Z,5.00
2023-05-11T21:18:12.145Z,6.00
2023-05-11T21:20:39.229Z,6.10
2023-05-11T21:23:06.278Z,5.90
2023-05-11T21:25:33.319Z,5.70
2023-05-11T21:28:04.316Z,5.00
2023-05-11T21:30:31.388Z,5.20
2023-05-11T21:32:58.490Z,5.50
2023-05-11T21:35:25.794Z,6.10
2023-05-11T21:37:54.291Z,4.50
2023-05-11T21:40:21.801Z,5.20
2023-05-11T21:42:49.156Z,4.80
2023-05-11T21:45:16.353Z,4.70
2023-05-11T21:47:43.420Z,4.40
2023-05-11T21:50:11.442Z,4.70
2023-05-11T21:52:38.855Z,3.90
2023-05-11T21:55:06.344Z,4.60
2023-05-11T21:57:33.484Z,4.50
2023-05-11T22:00:00.539Z,4.20
2023-05-11T22:02:28.424Z,5.10
2023-05-11T22:04:55.619Z,4.80
2023-05-11T22:07:23.337Z,4.90
2023-05-11T22:09:51.002Z,5.30
2023-05-11T22:12:18.286Z,6.60
2023-05-11T22:14:46.113Z,5.40
2023-05-11T22:17:13.251Z,5.50
2023-05-11T22:19:40.357Z,5.40
2023-05-11T22:22:07.478Z,5.30
2023-05-11T22:24:34.511Z,7.10
2023-05-11T22:27:02.250Z,6.90
2023-05-11T22:29:29.286Z,5.70
2023-05-11T22:31:56.756Z,6.40
2023-05-11T22:34:24.871Z,5.20
2023-05-11T22:36:51.871Z,5.60
2023-05-11T22:39:19.197Z,5.10
2023-05-11T22:41:46.222Z,6.30
2023-05-11T22:44:13.374Z,6.20
2023-05-11T22:46:40.404Z,5.90
2023-05-11T22:49:08.567Z,5.30
2023-05-11T22:51:35.783Z,7.00
2023-05-11T22:54:03.592Z,5.80
2023-05-11T22:56:31.462Z,6.10
2023-05-11T22:59:01.327Z,6.00
2023-05-11T23:01:28.847Z,5.40
2023-05-11T23:03:55.992Z,5.50
2023-05-11T23:06:23.554Z,5.70
2023-05-11T23:08:50.767Z,5.90
2023-05-11T23:11:17.915Z,5.70
2023-05-11T23:13:44.969Z,6.20
2023-05-11T23:16:12.126Z,6.10
2023-05-11T23:18:39.420Z,5.40
2023-05-11T23:21:06.720Z,5.10
2023-05-11T23:23:33.822Z,5.30
2023-05-11T23:26:00.962Z,6.60
2023-05-11T23:28:28.103Z,5.90
2023-05-11T23:30:55.176Z,5.40
2023-05-11T23:33:23.067Z,5.70
2023-05-11T23:35:50.070Z,5.70
2023-05-11T23:38:17.183Z,5.60
2023-05-11T23:40:44.849Z,6.30
2023-05-11T23:43:13.692Z,6.90
2023-05-11T23:45:40.981Z,7.00
2023-05-11T23:48:08.365Z,7.10
2023-05-11T23:50:35.399Z,6.60
2023-05-11T23:53:02.638Z,6.60
2023-05-11T23:55:30.046Z,6.50
2023-05-11T23:57:58.805Z,6.80
